Time;durP1;ratioP1;P1;durP2;ratioP2;P2;SDS_P1;SDS_P2;PMS_P1;PMS_P2;Temp;Humidity;BMP_temperature;BMP_pressure;BME280_temperature;BME280_humidity;BME280_pressure;Samples;Min_cycle;Max_cycle;Signal;HPM_P1;HPM_P2
2022/10/29 00:00:23;;;;;;;18.42;9.88;;;;;;;4.96;62.28;94577.00;5073246;28;20017;-36
2022/10/29 00:02:49;;;;;;;21.90;11.90;;;;;;;4.95;62.89;94575.50;5072821;28;20024;-36
2022/10/29 00:05:14;;;;;;;16.55;9.88;;;;;;;4.92;62.06;94574.47;5070353;28;20041;-35
2022/10/29 00:07:39;;;;;;;9.80;7.32;;;;;;;4.69;62.53;94559.13;5072776;28;20450;-35
2022/10/29 00:10:05;;;;;;;13.75;7.07;;;;;;;4.89;62.73;94574.72;5076267;28;20016;-35
2022/10/29 00:12:31;;;;;;;9.07;6.05;;;;;;;4.64;62.60;94570.75;5073778;28;20495;-35
2022/10/29 00:14:57;;;;;;;7.40;3.88;;;;;;;4.26;62.82;94577.34;5073406;28;20056;-35
2022/10/29 00:17:22;;;;;;;9.45;5.55;;;;;;;4.33;63.39;94571.44;5075007;28;20028;-35
2022/10/29 00:19:48;;;;;;;11.02;6.10;;;;;;;4.36;62.93;94565.00;5059358;28;20035;-35
2022/10/29 00:22:14;;;;;;;11.70;6.97;;;;;;;4.32;62.85;94563.72;5076906;28;20032;-35
2022/10/29 00:24:39;;;;;;;14.27;6.60;;;;;;;4.50;62.10;94564.13;5066014;28;20048;-35
2022/10/29 00:27:04;;;;;;;17.52;7.72;;;;;;;4.46;62.07;94563.59;5071824;28;20451;-35
2022/10/29 00:29:30;;;;;;;14.75;7.20;;;;;;;4.51;62.09;94570.38;5064742;28;20028;-35
2022/10/29 00:31:55;;;;;;;13.88;7.30;;;;;;;4.50;61.48;94569.59;5072613;28;20078;-35
2022/10/29 00:34:21;;;;;;;16.13;8.40;;;;;;;4.58;60.85;94569.94;5066737;28;20024;-35
2022/10/29 00:36:46;;;;;;;16.08;8.30;;;;;;;4.48;61.26;94572.06;5073809;28;20393;-35
2022/10/29 00:39:14;;;;;;;10.52;6.80;;;;;;;4.43;61.11;94548.19;5068700;28;20643;-35
2022/10/29 00:41:39;;;;;;;14.65;7.07;;;;;;;4.44;61.88;94568.81;5078002;28;20103;-35
2022/10/29 00:44:14;;;;;;;22.33;11.05;;;;;;;4.53;62.27;94554.22;5074631;28;20155;-36
2022/10/29 00:46:51;;;;;;;14.10;8.95;;;;;;;4.31;62.77;94565.69;5067782;28;20028;-35
2022/10/29 00:49:17;;;;;;;19.25;10.75;;;;;;;4.50;61.99;94555.22;5076908;28;20131;-35
2022/10/29 00:51:43;;;;;;;19.45;11.18;;;;;;;4.18;63.47;94556.38;5072014;28;20128;-35
2022/10/29 00:54:10;;;;;;;21.58;10.65;;;;;;;4.22;63.29;94543.25;5071896;28;20031;-35
2022/10/29 00:56:40;;;;;;;16.65;9.23;;;;;;;4.39;62.22;94544.91;5073289;28;20154;-35
2022/10/29 00:59:06;;;;;;;14.40;7.30;;;;;;;4.36;61.63;94545.09;5061367;28;20023;-35
2022/10/29 01:01:32;;;;;;;16.05;8.82;;;;;;;4.29;62.45;94535.34;5071901;28;20029;-35
2022/10/29 01:03:59;;;;;;;16.50;8.90;;;;;;;4.20;62.49;94540.97;5053470;28;20027;-35
2022/10/29 01:06:25;;;;;;;13.02;7.78;;;;;;;4.18;62.15;94534.50;5071448;28;20024;-35
2022/10/29 01:08:52;;;;;;;9.60;5.68;;;;;;;3.77;62.71;94541.97;5076249;28;20016;-35
2022/10/29 01:11:35;;;;;;;6.43;3.92;;;;;;;3.74;63.46;94540.19;5074758;28;20122;-35
2022/10/29 01:14:25;;;;;;;5.20;4.07;;;;;;;3.70;63.79;94543.13;5064988;28;20150;-35
2022/10/29 01:17:13;;;;;;;9.35;5.03;;;;;;;3.56;64.96;94535.00;5073284;28;20058;-35
2022/10/29 01:20:16;;;;;;;8.23;4.60;;;;;;;3.53;65.02;94536.69;5059499;28;20108;-35
2022/10/29 01:23:19;;;;;;;19.60;11.13;;;;;;;3.68;65.12;94542.13;5074495;28;20031;-35
2022/10/29 01:26:09;;;;;;;19.10;10.23;;;;;;;3.66;64.51;94530.91;5061507;28;20024;-35
2022/10/29 01:28:55;;;;;;;13.68;7.80;;;;;;;3.53;64.16;94533.22;5064048;28;20044;-35
2022/10/29 01:31:38;;;;;;;9.80;6.10;;;;;;;3.42;64.98;94535.81;5071655;28;20081;-35
2022/10/29 01:34:12;;;;;;;12.93;6.95;;;;;;;3.48;64.03;94523.75;5057670;28;20028;-35
2022/10/29 01:36:43;;;;;;;9.80;5.93;;;;;;;3.31;64.22;94502.91;5070510;28;20054;-35
2022/10/29 01:39:15;;;;;;;14.40;5.78;;;;;;;3.48;64.25;94514.78;5049913;28;20028;-35
2022/10/29 01:41:47;;;;;;;7.82;5.57;;;;;;;3.48;64.00;94526.47;5068556;28;20698;-35
2022/10/29 01:44:20;;;;;;;15.35;8.07;;;;;;;3.62;63.95;94519.44;5071585;28;20028;-35
2022/10/29 01:46:51;;;;;;;21.42;8.10;;;;;;;3.69;63.30;94525.25;5052281;28;20024;-36
2022/10/29 01:49:21;;;;;;;20.25;7.80;;;;;;;3.60;63.57;94519.91;5070450;28;20508;-35
2022/10/29 01:51:47;;;;;;;16.27;8.45;;;;;;;3.44;64.42;94515.00;5053067;28;20048;-35
2022/10/29 01:54:13;;;;;;;12.73;7.55;;;;;;;3.15;65.09;94517.06;5071045;28;20017;-35
2022/10/29 01:56:38;;;;;;;17.35;8.90;;;;;;;3.20;64.62;94506.25;5070867;28;20405;-35
2022/10/29 01:59:06;;;;;;;12.30;7.93;;;;;;;3.28;64.85;94501.13;5072204;28;20573;-35
2022/10/29 02:01:44;;;;;;;18.73;9.25;;;;;;;3.26;64.42;94504.34;5071675;28;20047;-35
2022/10/29 02:04:25;;;;;;;8.60;5.82;;;;;;;3.29;63.72;94506.09;5054121;28;20112;-35
2022/10/29 02:07:23;;;;;;;10.15;4.90;;;;;;;3.25;63.96;94502.09;5070334;28;20112;-35
2022/10/29 02:10:07;;;;;;;6.50;4.30;;;;;;;3.16;63.94;94505.69;5056864;28;20040;-35
2022/10/29 02:12:39;;;;;;;6.22;4.50;;;;;;;3.03;64.63;94495.06;5074052;28;20098;-35
2022/10/29 02:15:19;;;;;;;8.23;5.55;;;;;;;3.17;64.26;94503.69;5052106;28;20025;-35
2022/10/29 02:17:45;;;;;;;8.23;5.25;;;;;;;3.23;64.28;94499.09;5070218;28;20047;-35
2022/10/29 02:20:12;;;;;;;14.25;6.70;;;;;;;3.28;64.38;94490.97;5055027;28;20405;-35
2022/10/29 02:22:37;;;;;;;13.15;6.78;;;;;;;3.08;64.56;94494.41;5072456;28;20020;-36
2022/10/29 02:25:04;;;;;;;14.38;7.93;;;;;;;3.02;64.93;94496.31;5072807;28;20118;-35
2022/10/29 02:27:29;;;;;;;9.38;6.13;;;;;;;3.04;64.39;94469.31;5068993;28;20017;-35
2022/10/29 02:29:55;;;;;;;11.82;5.47;;;;;;;3.14;64.47;94480.84;5073357;28;20028;-36
2022/10/29 02:32:20;;;;;;;7.65;4.90;;;;;;;3.14;64.68;94483.56;5069358;28;20455;-35
2022/10/29 02:34:46;;;;;;;9.95;5.65;;;;;;;3.15;64.73;94473.41;5070146;28;20042;-35
2022/10/29 02:37:11;;;;;;;11.70;6.07;;;;;;;3.05;64.40;94472.78;5069592;28;20451;-35
2022/10/29 02:39:36;;;;;;;6.32;5.45;;;;;;;2.64;65.24;94471.19;5069136;28;20030;-35
2022/10/29 02:42:02;;;;;;;6.60;4.50;;;;;;;2.82;64.62;94484.59;5057080;28;20488;-36
2022/10/29 02:44:28;;;;;;;9.57;5.45;;;;;;;2.62;65.27;94485.28;5068135;28;20021;-36
2022/10/29 02:46:53;;;;;;;6.85;4.25;;;;;;;2.70;65.10;94483.69;5066824;28;20028;-36
2022/10/29 02:49:18;;;;;;;6.50;4.53;;;;;;;2.63;65.64;94481.34;5072758;28;20033;-35
2022/10/29 02:51:44;;;;;;;7.28;3.83;;;;;;;2.70;65.35;94477.47;5068396;28;20032;-34
2022/10/29 02:54:09;;;;;;;9.82;5.57;;;;;;;2.78;65.33;94475.84;5070370;28;20032;-34
2022/10/29 02:56:35;;;;;;;8.30;6.60;;;;;;;2.92;64.96;94464.19;5069896;28;20039;-34
2022/10/29 02:59:00;;;;;;;9.05;5.55;;;;;;;2.88;65.36;94469.09;5072972;28;20025;-34
2022/10/29 03:01:26;;;;;;;20.65;9.27;;;;;;;2.94;65.26;94469.91;5069712;28;20089;-35
2022/10/29 03:03:51;;;;;;;17.42;9.70;;;;;;;3.02;64.91;94469.03;5068344;28;20020;-35
2022/10/29 03:06:18;;;;;;;16.50;8.98;;;;;;;2.74;65.05;94475.31;5071510;28;20041;-35
2022/10/29 03:08:44;;;;;;;17.77;9.13;;;;;;;2.69;65.49;94441.28;5065327;28;20519;-34
2022/10/29 03:11:10;;;;;;;10.38;6.32;;;;;;;2.52;66.03;94464.81;5069521;28;20028;-35
2022/10/29 03:13:35;;;;;;;9.15;5.50;;;;;;;2.54;65.85;94467.06;5063985;28;20021;-35
2022/10/29 03:16:01;;;;;;;8.40;4.72;;;;;;;2.44;65.57;94469.16;5074826;28;20027;-35
2022/10/29 03:18:26;;;;;;;8.07;4.78;;;;;;;2.54;65.64;94469.78;5072044;28;20115;-34
2022/10/29 03:20:51;;;;;;;7.85;4.80;;;;;;;2.51;65.76;94473.47;5072616;28;20056;-35
2022/10/29 03:23:17;;;;;;;6.97;5.07;;;;;;;2.38;65.90;94473.00;5067167;28;20017;-35
2022/10/29 03:25:43;;;;;;;6.93;4.65;;;;;;;2.20;66.16;94471.97;5070720;28;20036;-35
2022/10/29 03:28:09;;;;;;;7.80;4.30;;;;;;;2.26;65.97;94463.88;5072652;28;20028;-35
2022/10/29 03:30:34;;;;;;;8.80;5.03;;;;;;;2.24;66.20;94472.53;5068768;28;20020;-35
2022/10/29 03:33:00;;;;;;;8.77;4.80;;;;;;;2.18;67.07;94476.41;5067675;28;20112;-35
2022/10/29 03:35:26;;;;;;;9.35;5.72;;;;;;;2.19;67.27;94473.19;5075004;28;20131;-35
2022/10/29 03:37:51;;;;;;;14.38;7.93;;;;;;;2.09;67.08;94471.03;5069546;28;20047;-35
2022/10/29 03:40:18;;;;;;;18.60;8.93;;;;;;;2.00;68.17;94482.00;5069294;28;20059;-35
2022/10/29 03:42:43;;;;;;;18.65;10.70;;;;;;;1.99;68.49;94473.09;5069631;28;20025;-35
2022/10/29 03:45:09;;;;;;;28.67;12.18;;;;;;;2.10;67.65;94478.72;5066809;28;20036;-35
2022/10/29 03:47:35;;;;;;;17.85;10.05;;;;;;;2.06;67.81;94480.13;5069865;28;20033;-35
2022/10/29 03:50:01;;;;;;;32.63;18.60;;;;;;;2.03;68.26;94470.19;5069247;28;20074;-35
2022/10/29 03:52:26;;;;;;;44.67;21.88;;;;;;;2.03;68.28;94472.91;5069361;28;20094;-35
2022/10/29 03:54:52;;;;;;;37.38;20.27;;;;;;;2.00;68.51;94473.84;5051449;28;20024;-36
2022/10/29 03:57:17;;;;;;;20.80;12.52;;;;;;;2.06;67.60;94472.72;5077827;28;20028;-35
2022/10/29 03:59:42;;;;;;;20.20;12.30;;;;;;;2.06;67.91;94461.06;5075397;28;20031;-36
2022/10/29 04:02:08;;;;;;;21.88;13.93;;;;;;;2.01;68.34;94473.38;5070983;28;20028;-35
2022/10/29 04:04:34;;;;;;;18.05;9.55;;;;;;;2.06;69.52;94466.50;5072081;28;20041;-35
2022/10/29 04:06:59;;;;;;;24.08;9.77;;;;;;;2.12;69.54;94470.84;5069950;28;20024;-36
2022/10/29 04:09:25;;;;;;;24.80;10.07;;;;;;;1.97;70.11;94477.53;5071929;28;20024;-35
2022/10/29 04:11:50;;;;;;;22.83;10.25;;;;;;;2.07;70.39;94476.97;5072534;28;20043;-35
2022/10/29 04:14:16;;;;;;;21.30;8.85;;;;;;;2.04;69.75;94467.00;5071982;28;20024;-35
2022/10/29 04:16:41;;;;;;;50.10;10.23;;;;;;;1.90;70.53;94475.91;5071716;28;20058;-35
2022/10/29 04:19:06;;;;;;;33.80;9.57;;;;;;;2.14;70.59;94478.56;5070497;28;20012;-35
2022/10/29 04:21:32;;;;;;;43.30;9.57;;;;;;;1.99;70.24;94472.34;5073276;28;20481;-35
2022/10/29 04:23:57;;;;;;;33.90;9.55;;;;;;;1.93;70.84;94479.66;5067699;28;20036;-36
2022/10/29 04:26:23;;;;;;;23.50;8.88;;;;;;;1.78;71.75;94478.88;5072147;28;20084;-35
2022/10/29 04:28:49;;;;;;;23.90;8.60;;;;;;;1.88;71.69;94478.34;5077416;28;20056;-35
2022/10/29 04:31:14;;;;;;;18.95;10.50;;;;;;;1.79;72.01;94486.59;5065481;28;20024;-35
2022/10/29 04:33:40;;;;;;;36.47;10.75;;;;;;;1.93;71.41;94474.97;5071978;28;20032;-35
2022/10/29 04:36:06;;;;;;;28.20;11.27;;;;;;;1.81;71.50;94483.41;5074140;28;20024;-35
2022/10/29 04:38:31;;;;;;;28.58;10.50;;;;;;;1.82;71.44;94477.47;5072321;28;20044;-35
2022/10/29 04:41:00;;;;;;;21.45;10.88;;;;;;;1.66;71.66;94477.19;5073664;28;20024;-35
2022/10/29 04:43:26;;;;;;;;;;;;;;;1.63;72.43;94478.09;5066735;28;20032;-35
2022/10/29 04:45:52;;;;;;;27.90;10.50;;;;;;;1.60;72.36;94462.72;5072504;28;19908;-36
2022/10/29 04:48:18;;;;;;;22.25;7.85;;;;;;;1.88;72.22;94483.81;5070096;28;20036;-34
2022/10/29 04:50:44;;;;;;;41.17;9.57;;;;;;;2.00;72.08;94485.50;5068926;28;20120;-34
2022/10/29 04:53:10;;;;;;;30.92;10.13;;;;;;;2.00;71.18;94474.59;5069327;28;20107;-35
2022/10/29 04:55:37;;;;;;;40.50;19.08;;;;;;;1.98;72.20;94484.44;5071682;28;20021;-35
2022/10/29 04:58:04;;;;;;;50.70;21.88;;;;;;;1.85;72.21;94481.25;5068206;28;20052;-35
2022/10/29 05:00:30;;;;;;;54.03;16.05;;;;;;;1.94;71.63;94481.94;5072868;28;20454;-35
2022/10/29 05:02:55;;;;;;;31.17;12.13;;;;;;;2.08;71.63;94473.00;5070435;28;20024;-35
2022/10/29 05:05:21;;;;;;;30.60;11.77;;;;;;;2.19;71.20;94472.44;5051877;28;20102;-35
2022/10/29 05:07:46;;;;;;;18.58;8.57;;;;;;;2.08;71.62;94480.44;5071054;28;20044;-35
2022/10/29 05:10:12;;;;;;;18.08;7.65;;;;;;;2.13;71.65;94477.81;5077955;28;20025;-35
2022/10/29 05:12:38;;;;;;;35.85;8.68;;;;;;;2.25;70.86;94482.22;5068697;28;20035;-35
2022/10/29 05:15:04;;;;;;;15.20;7.13;;;;;;;2.14;71.23;94490.19;5075636;28;20020;-35
2022/10/29 05:17:30;;;;;;;58.75;17.75;;;;;;;2.04;72.43;94488.03;5075192;28;20487;-35
2022/10/29 05:19:55;;;;;;;23.48;8.63;;;;;;;2.10;72.19;94494.34;5067109;28;20020;-35
2022/10/29 05:22:21;;;;;;;16.98;6.20;;;;;;;1.98;72.76;94481.72;5070780;28;20078;-35
2022/10/29 05:24:46;;;;;;;12.20;5.03;;;;;;;2.12;71.57;94486.44;5049025;28;20029;-35
2022/10/29 05:27:12;;;;;;;12.23;6.97;;;;;;;2.12;71.15;94487.19;5070542;28;20024;-34
2022/10/29 05:29:37;;;;;;;31.88;15.43;;;;;;;2.12;71.37;94489.91;5071839;28;20028;-35
2022/10/29 05:32:03;;;;;;;26.08;16.05;;;;;;;2.22;71.33;94496.03;5069786;28;20094;-35
2022/10/29 05:34:28;;;;;;;29.65;11.18;;;;;;;2.28;71.60;94492.19;5067147;28;20036;-35
2022/10/29 05:36:54;;;;;;;32.72;13.23;;;;;;;2.26;71.85;94489.16;5069627;28;20029;-34
2022/10/29 05:39:22;;;;;;;42.88;14.13;;;;;;;2.34;72.09;94497.72;5057690;28;20019;-34
2022/10/29 05:41:48;;;;;;;37.10;15.70;;;;;;;2.37;71.54;94496.03;5071553;28;20032;-35
2022/10/29 05:44:14;;;;;;;33.72;13.35;;;;;;;2.48;70.93;94486.06;5068641;28;20040;-34
2022/10/29 05:46:39;;;;;;;25.40;12.05;;;;;;;2.57;71.10;94498.84;5067082;28;20036;-35
2022/10/29 05:49:04;;;;;;;27.60;15.30;;;;;;;2.58;70.68;94506.53;5065865;28;20029;-35
2022/10/29 05:51:30;;;;;;;35.10;21.27;;;;;;;2.57;71.23;94505.03;5066878;28;20028;-35
2022/10/29 05:53:55;;;;;;;45.83;22.13;;;;;;;2.66;70.85;94504.94;5060856;28;20025;-34
2022/10/29 05:56:21;;;;;;;37.38;20.48;;;;;;;2.69;71.22;94508.69;5062476;28;20071;-35
2022/10/29 05:58:50;;;;;;;42.40;23.75;;;;;;;2.85;70.72;94510.94;5050789;28;20029;-35
2022/10/29 06:01:18;;;;;;;36.15;20.45;;;;;;;2.94;70.46;94510.81;5069794;28;20032;-35
2022/10/29 06:03:44;;;;;;;32.42;18.80;;;;;;;3.13;69.92;94495.72;5050944;28;20456;-35
2022/10/29 06:06:09;;;;;;;31.23;17.42;;;;;;;3.33;69.41;94514.84;5064458;28;20044;-35
2022/10/29 06:08:35;;;;;;;38.10;18.88;;;;;;;3.32;69.27;94516.06;5064223;28;20029;-35
2022/10/29 06:11:02;;;;;;;37.53;21.05;;;;;;;3.41;69.84;94510.50;5069635;28;20389;-35
2022/10/29 06:13:28;;;;;;;36.97;19.80;;;;;;;3.63;69.31;94512.75;5061659;28;20055;-35
2022/10/29 06:15:57;;;;;;;44.67;22.60;;;;;;;3.60;69.88;94506.25;5044264;28;20036;-35
2022/10/29 06:18:22;;;;;;;129.52;50.22;;;;;;;3.76;70.05;94515.88;5050813;28;20147;-35
2022/10/29 06:20:48;;;;;;;84.07;38.72;;;;;;;3.87;70.03;94518.75;5066026;28;20182;-35
2022/10/29 06:23:13;;;;;;;55.45;28.88;;;;;;;4.05;69.12;94510.25;5073656;28;20028;-35
2022/10/29 06:25:39;;;;;;;47.42;23.67;;;;;;;4.15;69.14;94517.09;5065821;28;20029;-35
2022/10/29 06:28:07;;;;;;;61.90;25.17;;;;;;;4.51;68.65;94513.69;5067163;28;20078;-36
2022/10/29 06:30:34;;;;;;;45.75;23.45;;;;;;;4.97;67.06;94516.31;5050362;28;20093;-35
2022/10/29 06:33:00;;;;;;;43.00;25.10;;;;;;;5.65;65.24;94516.22;5064777;28;20407;-35
2022/10/29 06:35:26;;;;;;;64.07;26.00;;;;;;;6.31;63.35;94517.75;5050662;28;20047;-35
2022/10/29 06:37:51;;;;;;;55.60;22.75;;;;;;;6.77;61.81;94523.56;5064774;28;20025;-36
2022/10/29 06:40:17;;;;;;;38.03;22.50;;;;;;;7.29;60.34;94510.81;5068205;28;20138;-35
2022/10/29 06:42:43;;;;;;;33.33;22.77;;;;;;;7.92;58.22;94508.16;5063387;28;20025;-35
2022/10/29 06:45:09;;;;;;;39.97;24.02;;;;;;;8.54;56.62;94512.13;5066173;28;20415;-35
2022/10/29 06:47:41;;;;;;;58.97;25.13;;;;;;;9.80;54.28;94512.31;5063807;28;20020;-35
2022/10/29 06:50:08;;;;;;;34.05;17.00;;;;;;;11.48;50.70;94506.69;5064312;28;20500;-36
2022/10/29 06:52:34;;;;;;;25.67;15.32;;;;;;;12.71;47.71;94503.78;5069507;28;20106;-36
2022/10/29 06:55:01;;;;;;;51.35;16.35;;;;;;;14.10;43.89;94501.09;5061070;28;20104;-36
2022/10/29 06:57:27;;;;;;;25.70;15.23;;;;;;;15.62;40.65;94497.53;5061649;28;20020;-36
2022/10/29 06:59:53;;;;;;;24.95;15.90;;;;;;;16.74;37.71;94494.38;5064997;28;20033;-36
2022/10/29 07:02:20;;;;;;;26.52;17.35;;;;;;;17.67;36.35;94497.56;5065637;28;20032;-41
2022/10/29 07:04:45;;;;;;;24.42;16.15;;;;;;;18.75;34.25;94495.38;5064359;28;20081;-44
2022/10/29 07:07:10;;;;;;;56.22;18.63;;;;;;;19.51;33.09;94497.22;5066068;28;20032;-41
2022/10/29 07:09:36;;;;;;;32.78;20.83;;;;;;;19.76;31.59;94497.00;5053113;28;20029;-41
2022/10/29 07:12:01;;;;;;;36.40;25.58;;;;;;;20.27;31.16;94503.06;5064209;28;20032;-44
2022/10/29 07:14:27;;;;;;;83.60;26.85;;;;;;;21.12;30.54;94500.91;5065047;28;20531;-43
2022/10/29 07:16:52;;;;;;;30.67;23.33;;;;;;;21.88;28.96;94502.78;5066188;28;20020;-37
2022/10/29 07:19:18;;;;;;;25.13;19.00;;;;;;;22.53;28.60;94491.00;5063403;28;20060;-37
2022/10/29 07:21:43;;;;;;;32.05;20.40;;;;;;;22.88;28.15;94491.94;5064483;28;20063;-36
2022/10/29 07:24:09;;;;;;;26.80;19.70;;;;;;;23.03;27.66;94502.78;5065914;28;20016;-36
2022/10/29 07:26:35;;;;;;;23.98;18.63;;;;;;;23.51;27.41;94495.97;5068315;28;20021;-36
2022/10/29 07:29:01;;;;;;;19.73;17.15;;;;;;;23.88;26.67;94494.81;5066996;28;20060;-37
2022/10/29 07:31:28;;;;;;;21.33;16.65;;;;;;;24.21;26.56;94493.97;5066364;28;20042;-38
2022/10/29 07:33:54;;;;;;;24.60;19.50;;;;;;;24.71;26.06;94492.00;5068598;28;20032;-37
2022/10/29 07:36:19;;;;;;;22.33;17.85;;;;;;;24.94;25.86;94499.72;5067012;28;20477;-37
2022/10/29 07:38:45;;;;;;;16.33;12.73;;;;;;;24.90;25.95;94501.59;5067862;28;20512;-36
2022/10/29 07:41:11;;;;;;;13.90;11.02;;;;;;;25.12;26.09;94489.44;5069302;28;20033;-37
2022/10/29 07:43:36;;;;;;;12.68;9.52;;;;;;;25.71;25.65;94490.63;5070060;28;20039;-37
2022/10/29 07:46:02;;;;;;;16.85;8.52;;;;;;;25.96;25.25;94487.00;5071363;28;20021;-36
2022/10/29 07:48:27;;;;;;;11.00;7.00;;;;;;;26.37;25.12;94482.13;5070223;28;20492;-36
2022/10/29 07:50:53;;;;;;;13.07;7.88;;;;;;;26.67;24.93;94486.50;5069827;28;20060;-36
2022/10/29 07:53:18;;;;;;;13.05;8.05;;;;;;;26.70;24.73;94490.94;5053028;28;20029;-37
2022/10/29 07:55:51;;;;;;;6.05;5.25;;;;;;;26.59;25.02;94482.53;5069103;28;20028;-37
2022/10/29 07:58:16;;;;;;;8.00;6.03;;;;;;;25.83;25.67;94488.47;5069816;28;20050;-37
2022/10/29 08:00:42;;;;;;;10.90;5.22;;;;;;;26.68;25.28;94479.47;5070803;28;20020;-37
2022/10/29 08:03:08;;;;;;;7.75;5.10;;;;;;;26.80;24.89;94473.72;5073013;28;20044;-36
2022/10/29 08:05:34;;;;;;;24.08;6.72;;;;;;;26.82;24.82;94471.72;5052951;28;20109;-37
2022/10/29 08:08:00;;;;;;;6.50;4.65;;;;;;;27.13;24.60;94470.38;5072462;28;20024;-37
2022/10/29 08:10:25;;;;;;;7.15;6.03;;;;;;;27.09;24.28;94470.91;5067163;28;20032;-36
2022/10/29 08:12:52;;;;;;;11.05;7.20;;;;;;;27.39;23.52;94463.91;5069723;28;20036;-36
2022/10/29 08:15:19;;;;;;;9.38;7.10;;;;;;;27.35;23.47;94465.78;5070933;28;20432;-36
2022/10/29 08:17:45;;;;;;;9.63;6.93;;;;;;;27.47;23.10;94458.59;5070821;28;20020;-36
2022/10/29 08:20:11;;;;;;;8.63;6.65;;;;;;;27.52;23.92;94468.78;5068272;28;20075;-36
2022/10/29 08:22:36;;;;;;;6.80;5.05;;;;;;;27.82;23.33;94469.44;5069498;28;20024;-36
2022/10/29 08:25:03;;;;;;;5.20;4.70;;;;;;;28.20;22.99;94459.84;5072315;28;20028;-36
2022/10/29 08:27:28;;;;;;;5.72;5.18;;;;;;;27.87;23.61;94451.22;5068126;28;20096;-36
2022/10/29 08:29:53;;;;;;;8.73;5.07;;;;;;;28.21;23.45;94452.06;5069128;28;20485;-34
2022/10/29 08:32:19;;;;;;;4.78;4.30;;;;;;;28.62;22.90;94460.25;5063622;28;20029;-34
2022/10/29 08:34:44;;;;;;;12.85;5.38;;;;;;;28.76;22.84;94452.34;5064849;28;20021;-35
2022/10/29 08:37:10;;;;;;;28.75;6.47;;;;;;;28.40;22.75;94462.84;5062459;28;20021;-34
2022/10/29 08:39:35;;;;;;;7.93;4.18;;;;;;;28.31;22.99;94453.22;5067513;28;20399;-35
2022/10/29 08:42:06;;;;;;;31.17;6.55;;;;;;;28.85;22.71;94454.13;5063967;28;20115;-35
2022/10/29 08:44:41;;;;;;;6.90;4.90;;;;;;;29.29;22.17;94453.13;5070048;28;20025;-35
2022/10/29 08:47:19;;;;;;;12.80;4.97;;;;;;;29.38;21.71;94446.38;5074212;28;20028;-34
2022/10/29 08:50:14;;;;;;;8.27;3.70;;;;;;;28.98;21.94;94450.41;5035867;28;20029;-35
2022/10/29 08:52:41;;;;;;;6.57;4.28;;;;;;;28.77;22.00;94439.56;5069867;28;20488;-34
2022/10/29 08:55:32;;;;;;;4.43;3.83;;;;;;;28.59;22.58;94428.16;5053677;28;20051;-35
2022/10/29 08:57:58;;;;;;;7.15;4.63;;;;;;;28.85;22.82;94439.91;5072132;28;20024;-35
2022/10/29 09:00:39;;;;;;;13.90;5.35;;;;;;;29.29;22.21;94444.59;5051242;28;20397;-36
2022/10/29 09:03:09;;;;;;;6.78;3.97;;;;;;;29.59;21.76;94431.56;5048844;28;20028;-35
2022/10/29 09:05:58;;;;;;;8.77;4.82;;;;;;;28.82;21.96;94429.84;5049452;28;20433;-35
2022/10/29 09:08:38;;;;;;;6.68;3.60;;;;;;;28.95;21.75;94428.97;5021158;28;20064;-36
2022/10/29 09:11:30;;;;;;;6.93;3.95;;;;;;;29.05;21.32;94432.94;5064904;28;20058;-35
2022/10/29 09:14:05;;;;;;;11.20;3.67;;;;;;;29.04;21.29;94431.47;5049124;28;20032;-35
2022/10/29 09:16:41;;;;;;;5.55;4.30;;;;;;;28.98;22.62;94433.34;5070166;28;20016;-35
2022/10/29 09:19:16;;;;;;;8.27;4.40;;;;;;;29.36;21.68;94426.41;5067360;28;20024;-35
2022/10/29 09:21:54;;;;;;;8.18;3.45;;;;;;;29.03;21.60;94432.13;5070380;28;20827;-35
2022/10/29 09:24:38;;;;;;;4.65;3.42;;;;;;;29.14;22.15;94420.53;5071259;28;20110;-37
2022/10/29 09:27:09;;;;;;;23.00;4.82;;;;;;;29.69;21.67;94417.69;5075490;28;20024;-34
2022/10/29 09:29:45;;;;;;;5.05;3.67;;;;;;;30.02;20.89;94424.66;5074262;28;20030;-35
2022/10/29 09:32:16;;;;;;;3.45;2.55;;;;;;;30.02;20.59;94413.28;5056903;28;20056;-34
2022/10/29 09:35:13;;;;;;;3.83;2.42;;;;;;;29.87;21.16;94406.31;5059523;28;20539;-35
2022/10/29 09:37:48;;;;;;;3.15;2.60;;;;;;;29.86;21.30;94404.84;5070148;28;20127;-35
2022/10/29 09:40:38;;;;;;;3.85;3.35;;;;;;;29.63;21.12;94405.34;5057123;28;20029;-35
2022/10/29 09:43:24;;;;;;;4.40;3.10;;;;;;;29.30;21.78;94400.56;5047485;28;20404;-34
2022/10/29 09:45:58;;;;;;;5.50;3.33;;;;;;;29.06;22.27;94396.72;5067622;28;20028;-35
2022/10/29 09:49:06;;;;;;;13.88;3.65;;;;;;;29.65;21.51;94396.91;5071215;28;20044;-35
2022/10/29 09:52:16;;;;;;;14.10;3.17;;;;;;;29.54;21.54;94392.94;5042849;28;20080;-34
2022/10/29 09:54:41;;;;;;;24.00;4.18;;;;;;;29.84;20.85;94388.41;4967219;28;20030;-35
2022/10/29 09:57:18;;;;;;;2.58;2.00;;;;;;;29.85;20.93;94381.34;4974220;28;20131;-35
2022/10/29 09:59:47;;;;;;;4.40;1.75;;;;;;;29.94;20.77;94374.56;5027694;28;20490;-35
2022/10/29 10:02:32;;;;;;;1.83;1.63;;;;;;;29.74;21.52;94381.59;5052360;28;20036;-34
2022/10/29 10:05:06;;;;;;;2.33;1.90;;;;;;;30.06;20.82;94368.53;5065759;28;20056;-35
2022/10/29 10:07:31;;;;;;;4.78;2.05;;;;;;;30.22;20.52;94371.25;5073155;28;20059;-35
2022/10/29 10:10:01;;;;;;;2.85;2.10;;;;;;;30.30;20.18;94374.41;5067799;28;20106;-35
2022/10/29 10:12:42;;;;;;;5.85;2.65;;;;;;;30.44;20.01;94360.66;5072353;28;20380;-35
2022/10/29 10:15:23;;;;;;;4.10;1.75;;;;;;;30.30;20.67;94351.59;5067858;28;20397;-35
2022/10/29 10:18:16;;;;;;;2.00;1.80;;;;;;;30.42;19.88;94352.78;5067839;28;20039;-35
2022/10/29 10:20:44;;;;;;;2.90;2.03;;;;;;;30.51;20.15;94350.94;5063081;28;20420;-35
2022/10/29 10:23:24;;;;;;;6.63;2.55;;;;;;;30.58;20.42;94347.59;5068736;28;20570;-35
2022/10/29 10:25:57;;;;;;;7.05;2.30;;;;;;;30.23;20.41;94344.97;5067479;28;20056;-35
2022/10/29 10:28:30;;;;;;;11.27;2.85;;;;;;;29.92;21.15;94343.16;5071724;28;20024;-35
2022/10/29 10:31:12;;;;;;;3.63;1.50;;;;;;;30.21;20.46;94333.50;5068399;28;20024;-35
2022/10/29 10:33:51;;;;;;;3.65;2.10;;;;;;;30.39;20.69;94327.69;5069313;28;20039;-35
2022/10/29 10:36:20;;;;;;;5.32;2.10;;;;;;;30.19;20.01;94322.00;5072455;28;20549;-35
2022/10/29 10:39:10;;;;;;;2.53;1.75;;;;;;;30.23;20.38;94325.03;5054507;28;20493;-35
2022/10/29 10:43:50;;;;;;;3.83;2.00;;;;;;;30.75;20.12;94317.53;4907741;27;5881517;-34
2022/10/29 10:46:23;;;;;;;3.97;2.47;;;;;;;30.42;20.78;94312.88;5101568;28;20411;-36
2022/10/29 10:49:04;;;;;;;2.97;2.20;;;;;;;30.19;21.05;94310.63;5085139;28;20040;-37
2022/10/29 10:51:31;;;;;;;15.00;5.30;;;;;;;30.42;20.30;94312.16;5076907;28;20020;-37
2022/10/29 10:53:58;;;;;;;4.25;2.22;;;;;;;30.27;20.44;94308.06;5088404;28;20028;-37
2022/10/29 10:56:24;;;;;;;6.60;4.18;;;;;;;30.18;20.70;94303.47;5100357;28;20035;-37
2022/10/29 10:59:02;;;;;;;3.05;2.35;;;;;;;30.39;19.71;94302.78;5095824;28;20024;-37
2022/10/29 11:01:31;;;;;;;2.38;1.85;;;;;;;29.76;21.00;94299.13;5096800;28;20556;-36
2022/10/29 11:04:01;;;;;;;5.50;2.80;;;;;;;30.24;20.44;94302.94;5094599;28;20062;-37
2022/10/29 11:06:39;;;;;;;2.83;2.10;;;;;;;30.19;20.39;94295.66;5097745;28;20027;-37
2022/10/29 11:09:27;;;;;;;2.05;1.80;;;;;;;29.82;20.33;94285.84;5087111;28;20032;-36
2022/10/29 11:12:22;;;;;;;3.63;2.80;;;;;;;29.67;20.91;94280.28;5087205;28;20110;-36
2022/10/29 11:14:53;;;;;;;14.27;5.65;;;;;;;29.15;21.68;94293.28;5098392;28;20035;-36
2022/10/29 11:17:46;;;;;;;6.47;2.55;;;;;;;28.83;21.84;94281.38;5082867;28;20031;-36
2022/10/29 11:20:26;;;;;;;2.97;2.42;;;;;;;29.09;21.52;94284.50;5083316;28;20062;-36
2022/10/29 11:23:01;;;;;;;3.35;2.20;;;;;;;29.40;21.08;94272.91;5086153;28;20592;-36
2022/10/29 11:25:36;;;;;;;2.85;1.98;;;;;;;29.40;21.24;94267.22;5079078;28;20021;-37
2022/10/29 11:28:34;;;;;;;2.70;1.95;;;;;;;29.36;21.49;94263.50;5094281;28;20515;-36
2022/10/29 11:31:38;;;;;;;5.37;2.60;;;;;;;29.51;20.79;94256.94;5083509;28;20054;-37
2022/10/29 11:34:25;;;;;;;4.22;1.80;;;;;;;28.90;21.18;94251.81;5094788;28;20465;-36
2022/10/29 11:37:02;;;;;;;3.80;2.13;;;;;;;28.90;21.58;94259.59;5093000;28;20081;-37
2022/10/29 11:39:46;;;;;;;3.33;2.33;;;;;;;28.81;22.01;94246.44;5087309;28;20024;-37
2022/10/29 11:42:12;;;;;;;3.90;2.45;;;;;;;28.58;22.23;94244.88;5099269;28;20075;-37
2022/10/29 11:44:38;;;;;;;3.28;1.92;;;;;;;28.66;21.95;94228.13;5087777;28;20784;-36
2022/10/29 11:47:56;;;;;;;1.83;1.48;;;;;;;28.69;22.08;94237.47;5079616;28;20028;-37